sensor_id;sensor_type;location;lat;lon;timestamp;P1;durP1;ratioP1;P2;durP2;ratioP2
76121;SDS011;64853;53.200;6.080;2023-05-10T00:01:11;1.30;;;0.93;;
76121;SDS011;64853;53.200;6.080;2023-05-10T00:06:02;0.80;;;0.77;;
76121;SDS011;64853;53.200;6.080;2023-05-10T00:10:55;0.77;;;0.75;;
76121;SDS011;64853;53.200;6.080;2023-05-10T00:15:47;2.03;;;1.50;;
76121;SDS011;64853;53.200;6.080;2023-05-10T00:20:38;1.10;;;1.00;;
76121;SDS011;64853;53.200;6.080;2023-05-10T00:25:30;1.75;;;1.40;;
76121;SDS011;64853;53.200;6.080;2023-05-10T00:30:22;1.70;;;1.38;;
76121;SDS011;64853;53.200;6.080;2023-05-10T00:35:14;1.20;;;1.10;;
76121;SDS011;64853;53.200;6.080;2023-05-10T00:40:06;2.97;;;1.42;;
76121;SDS011;64853;53.200;6.080;2023-05-10T00:44:58;1.20;;;1.10;;
76121;SDS011;64853;53.200;6.080;2023-05-10T00:49:51;1.23;;;1.13;;
76121;SDS011;64853;53.200;6.080;2023-05-10T00:54:42;0.77;;;0.77;;
76121;SDS011;64853;53.200;6.080;2023-05-10T00:59:34;0.60;;;0.60;;
76121;SDS011;64853;53.200;6.080;2023-05-10T01:04:25;0.47;;;0.47;;
76121;SDS011;64853;53.200;6.080;2023-05-10T01:09:19;0.88;;;0.80;;
76121;SDS011;64853;53.200;6.080;2023-05-10T01:14:12;1.02;;;0.90;;
76121;SDS011;64853;53.200;6.080;2023-05-10T01:24:03;0.90;;;0.80;;
76121;SDS011;64853;53.200;6.080;2023-05-10T01:34:57;4.25;;;2.58;;
76121;SDS011;64853;53.200;6.080;2023-05-10T01:39:55;3.92;;;2.67;;
76121;SDS011;64853;53.200;6.080;2023-05-10T01:44:58;3.92;;;2.85;;
76121;SDS011;64853;53.200;6.080;2023-05-10T01:49:54;5.93;;;4.00;;
76121;SDS011;64853;53.200;6.080;2023-05-10T01:54:53;3.70;;;2.83;;
76121;SDS011;64853;53.200;6.080;2023-05-10T01:59:46;4.13;;;2.92;;
76121;SDS011;64853;53.200;6.080;2023-05-10T02:04:41;3.15;;;2.17;;
76121;SDS011;64853;53.200;6.080;2023-05-10T02:09:35;5.93;;;3.65;;
76121;SDS011;64853;53.200;6.080;2023-05-10T02:14:28;5.85;;;3.70;;
76121;SDS011;64853;53.200;6.080;2023-05-10T02:19:21;6.43;;;4.00;;
76121;SDS011;64853;53.200;6.080;2023-05-10T02:24:14;5.20;;;3.13;;
76121;SDS011;64853;53.200;6.080;2023-05-10T02:29:08;6.50;;;4.05;;
76121;SDS011;64853;53.200;6.080;2023-05-10T02:34:02;7.97;;;4.40;;
76121;SDS011;64853;53.200;6.080;2023-05-10T02:38:55;5.75;;;3.53;;
76121;SDS011;64853;53.200;6.080;2023-05-10T02:43:47;5.38;;;4.43;;
76121;SDS011;64853;53.200;6.080;2023-05-10T02:48:43;4.32;;;2.80;;
76121;SDS011;64853;53.200;6.080;2023-05-10T02:53:35;3.30;;;2.80;;
76121;SDS011;64853;53.200;6.080;2023-05-10T02:58:29;3.40;;;2.75;;
76121;SDS011;64853;53.200;6.080;2023-05-10T03:03:21;2.38;;;1.83;;
76121;SDS011;64853;53.200;6.080;2023-05-10T03:08:14;1.17;;;1.08;;
76121;SDS011;64853;53.200;6.080;2023-05-10T03:13:06;0.70;;;0.70;;
76121;SDS011;64853;53.200;6.080;2023-05-10T03:18:04;0.65;;;0.50;;
76121;SDS011;64853;53.200;6.080;2023-05-10T03:23:00;0.30;;;0.30;;
76121;SDS011;64853;53.200;6.080;2023-05-10T03:27:59;0.63;;;0.30;;
76121;SDS011;64853;53.200;6.080;2023-05-10T03:32:52;0.20;;;0.20;;
76121;SDS011;64853;53.200;6.080;2023-05-10T03:37:44;0.20;;;0.20;;
76121;SDS011;64853;53.200;6.080;2023-05-10T03:42:36;0.32;;;0.30;;
76121;SDS011;64853;53.200;6.080;2023-05-10T03:47:29;0.40;;;0.38;;
76121;SDS011;64853;53.200;6.080;2023-05-10T03:52:21;0.98;;;0.20;;
76121;SDS011;64853;53.200;6.080;2023-05-10T03:57:13;0.35;;;0.20;;
76121;SDS011;64853;53.200;6.080;2023-05-10T04:02:04;0.30;;;0.20;;
76121;SDS011;64853;53.200;6.080;2023-05-10T04:06:57;1.02;;;0.45;;
76121;SDS011;64853;53.200;6.080;2023-05-10T04:11:48;1.30;;;1.10;;
76121;SDS011;64853;53.200;6.080;2023-05-10T04:16:40;0.93;;;0.50;;
76121;SDS011;64853;53.200;6.080;2023-05-10T04:21:31;0.93;;;0.52;;
76121;SDS011;64853;53.200;6.080;2023-05-10T04:26:24;0.75;;;0.52;;
76121;SDS011;64853;53.200;6.080;2023-05-10T04:31:16;1.52;;;0.82;;
76121;SDS011;64853;53.200;6.080;2023-05-10T04:36:08;2.33;;;0.93;;
76121;SDS011;64853;53.200;6.080;2023-05-10T04:41:06;0.90;;;0.60;;
76121;SDS011;64853;53.200;6.080;2023-05-10T04:45:59;1.08;;;0.57;;
76121;SDS011;64853;53.200;6.080;2023-05-10T04:50:51;1.20;;;0.70;;
76121;SDS011;64853;53.200;6.080;2023-05-10T04:55:42;1.50;;;1.30;;
76121;SDS011;64853;53.200;6.080;2023-05-10T05:00:34;3.40;;;1.65;;
76121;SDS011;64853;53.200;6.080;2023-05-10T05:05:27;3.42;;;1.92;;
76121;SDS011;64853;53.200;6.080;2023-05-10T05:10:18;3.40;;;1.48;;
76121;SDS011;64853;53.200;6.080;2023-05-10T05:15:10;2.03;;;1.10;;
76121;SDS011;64853;53.200;6.080;2023-05-10T05:20:02;1.30;;;0.75;;
76121;SDS011;64853;53.200;6.080;2023-05-10T05:24:56;0.52;;;0.40;;
76121;SDS011;64853;53.200;6.080;2023-05-10T05:29:49;1.02;;;0.50;;
76121;SDS011;64853;53.200;6.080;2023-05-10T05:34:40;0.30;;;0.30;;
76121;SDS011;64853;53.200;6.080;2023-05-10T05:39:32;0.60;;;0.30;;
76121;SDS011;64853;53.200;6.080;2023-05-10T05:44:24;0.75;;;0.30;;
76121;SDS011;64853;53.200;6.080;2023-05-10T05:49:17;0.20;;;0.20;;
76121;SDS011;64853;53.200;6.080;2023-05-10T05:54:09;0.30;;;0.30;;
76121;SDS011;64853;53.200;6.080;2023-05-10T05:59:00;0.25;;;0.20;;
76121;SDS011;64853;53.200;6.080;2023-05-10T06:03:53;1.35;;;0.20;;
76121;SDS011;64853;53.200;6.080;2023-05-10T06:08:45;4.95;;;0.30;;
76121;SDS011;64853;53.200;6.080;2023-05-10T06:13:36;1.35;;;0.10;;
76121;SDS011;64853;53.200;6.080;2023-05-10T06:18:28;0.28;;;0.20;;
76121;SDS011;64853;53.200;6.080;2023-05-10T06:23:20;3.03;;;0.20;;
76121;SDS011;64853;53.200;6.080;2023-05-10T06:28:12;0.63;;;0.20;;
76121;SDS011;64853;53.200;6.080;2023-05-10T06:33:03;0.00;;;0.00;;
76121;SDS011;64853;53.200;6.080;2023-05-10T06:37:55;0.10;;;0.10;;
76121;SDS011;64853;53.200;6.080;2023-05-10T06:42:48;0.90;;;0.10;;
76121;SDS011;64853;53.200;6.080;2023-05-10T06:47:40;0.20;;;0.10;;
76121;SDS011;64853;53.200;6.080;2023-05-10T06:52:32;0.15;;;0.10;;
76121;SDS011;64853;53.200;6.080;2023-05-10T06:57:23;0.20;;;0.10;;
76121;SDS011;64853;53.200;6.080;2023-05-10T07:02:16;0.20;;;0.20;;
76121;SDS011;64853;53.200;6.080;2023-05-10T07:07:07;0.52;;;0.10;;
76121;SDS011;64853;53.200;6.080;2023-05-10T07:11:59;0.03;;;0.03;;
76121;SDS011;64853;53.200;6.080;2023-05-10T07:16:51;0.20;;;0.10;;
76121;SDS011;64853;53.200;6.080;2023-05-10T07:21:44;0.00;;;0.00;;
76121;SDS011;64853;53.200;6.080;2023-05-10T07:26:36;0.10;;;0.10;;
76121;SDS011;64853;53.200;6.080;2023-05-10T07:31:27;0.20;;;0.20;;
76121;SDS011;64853;53.200;6.080;2023-05-10T07:41:12;0.10;;;0.10;;
76121;SDS011;64853;53.200;6.080;2023-05-10T07:46:03;0.63;;;0.35;;
76121;SDS011;64853;53.200;6.080;2023-05-10T07:50:56;1.58;;;0.10;;
76121;SDS011;64853;53.200;6.080;2023-05-10T07:55:49;0.10;;;0.10;;
76121;SDS011;64853;53.200;6.080;2023-05-10T08:00:42;0.30;;;0.20;;
76121;SDS011;64853;53.200;6.080;2023-05-10T08:05:34;0.75;;;0.30;;
76121;SDS011;64853;53.200;6.080;2023-05-10T08:10:25;1.08;;;0.20;;
76121;SDS011;64853;53.200;6.080;2023-05-10T08:15:17;2.17;;;0.85;;
76121;SDS011;64853;53.200;6.080;2023-05-10T08:20:10;0.47;;;0.10;;
76121;SDS011;64853;53.200;6.080;2023-05-10T08:25:03;1.65;;;0.20;;
76121;SDS011;64853;53.200;6.080;2023-05-10T08:29:55;0.20;;;0.20;;
76121;SDS011;64853;53.200;6.080;2023-05-10T08:34:46;0.55;;;0.10;;
76121;SDS011;64853;53.200;6.080;2023-05-10T08:39:39;0.20;;;0.17;;
76121;SDS011;64853;53.200;6.080;2023-05-10T08:44:30;1.58;;;0.10;;
76121;SDS011;64853;53.200;6.080;2023-05-10T08:49:25;0.10;;;0.10;;
76121;SDS011;64853;53.200;6.080;2023-05-10T08:54:22;1.13;;;0.13;;
76121;SDS011;64853;53.200;6.080;2023-05-10T08:59:15;0.20;;;0.20;;
76121;SDS011;64853;53.200;6.080;2023-05-10T09:04:07;0.35;;;0.25;;
76121;SDS011;64853;53.200;6.080;2023-05-10T09:08:58;0.10;;;0.10;;
76121;SDS011;64853;53.200;6.080;2023-05-10T09:13:50;1.23;;;0.20;;
76121;SDS011;64853;53.200;6.080;2023-05-10T09:18:44;0.40;;;0.30;;
76121;SDS011;64853;53.200;6.080;2023-05-10T09:23:36;0.98;;;0.15;;
76121;SDS011;64853;53.200;6.080;2023-05-10T09:28:27;0.28;;;0.13;;
76121;SDS011;64853;53.200;6.080;2023-05-10T09:33:22;0.30;;;0.25;;
76121;SDS011;64853;53.200;6.080;2023-05-10T09:38:15;0.60;;;0.35;;
76121;SDS011;64853;53.200;6.080;2023-05-10T09:43:07;0.30;;;0.25;;
76121;SDS011;64853;53.200;6.080;2023-05-10T09:52:52;1.30;;;0.20;;
76121;SDS011;64853;53.200;6.080;2023-05-10T09:57:46;1.05;;;0.30;;
76121;SDS011;64853;53.200;6.080;2023-05-10T10:02:38;0.40;;;0.30;;
76121;SDS011;64853;53.200;6.080;2023-05-10T10:07:30;0.65;;;0.30;;
76121;SDS011;64853;53.200;6.080;2023-05-10T10:12:22;0.50;;;0.35;;
76121;SDS011;64853;53.200;6.080;2023-05-10T10:17:15;0.45;;;0.35;;
76121;SDS011;64853;53.200;6.080;2023-05-10T10:22:07;0.40;;;0.40;;
76121;SDS011;64853;53.200;6.080;2023-05-10T10:27:03;1.17;;;0.43;;
76121;SDS011;64853;53.200;6.080;2023-05-10T10:32:06;1.13;;;0.40;;
76121;SDS011;64853;53.200;6.080;2023-05-10T10:37:05;1.13;;;0.60;;
76121;SDS011;64853;53.200;6.080;2023-05-10T10:41:57;0.40;;;0.40;;
76121;SDS011;64853;53.200;6.080;2023-05-10T10:46:59;0.93;;;0.35;;
76121;SDS011;64853;53.200;6.080;2023-05-10T10:57:12;0.80;;;0.43;;
76121;SDS011;64853;53.200;6.080;2023-05-10T11:02:04;0.90;;;0.57;;
76121;SDS011;64853;53.200;6.080;2023-05-10T11:12:08;0.82;;;0.60;;
76121;SDS011;64853;53.200;6.080;2023-05-10T11:17:00;0.73;;;0.50;;
76121;SDS011;64853;53.200;6.080;2023-05-10T11:27:05;0.63;;;0.60;;
76121;SDS011;64853;53.200;6.080;2023-05-10T11:31:57;0.88;;;0.88;;
76121;SDS011;64853;53.200;6.080;2023-05-10T11:36:50;1.38;;;0.70;;
76121;SDS011;64853;53.200;6.080;2023-05-10T11:41:44;0.90;;;0.57;;
76121;SDS011;64853;53.200;6.080;2023-05-10T11:46:40;1.00;;;0.73;;
76121;SDS011;64853;53.200;6.080;2023-05-10T11:51:33;0.93;;;0.60;;
76121;SDS011;64853;53.200;6.080;2023-05-10T11:56:25;1.08;;;0.80;;
76121;SDS011;64853;53.200;6.080;2023-05-10T12:01:17;1.55;;;1.02;;
76121;SDS011;64853;53.200;6.080;2023-05-10T12:11:04;3.42;;;1.52;;
76121;SDS011;64853;53.200;6.080;2023-05-10T12:15:58;2.25;;;1.92;;
76121;SDS011;64853;53.200;6.080;2023-05-10T12:20:51;2.78;;;1.02;;
76121;SDS011;64853;53.200;6.080;2023-05-10T12:25:44;1.73;;;1.25;;
76121;SDS011;64853;53.200;6.080;2023-05-10T12:30:36;2.17;;;1.20;;
76121;SDS011;64853;53.200;6.080;2023-05-10T12:35:31;1.73;;;1.20;;
76121;SDS011;64853;53.200;6.080;2023-05-10T12:40:23;1.95;;;0.90;;
76121;SDS011;64853;53.200;6.080;2023-05-10T12:45:17;1.10;;;1.00;;
76121;SDS011;64853;53.200;6.080;2023-05-10T12:50:09;1.73;;;1.15;;
76121;SDS011;64853;53.200;6.080;2023-05-10T12:55:01;1.50;;;0.98;;
76121;SDS011;64853;53.200;6.080;2023-05-10T12:59:53;1.30;;;0.85;;
76121;SDS011;64853;53.200;6.080;2023-05-10T13:04:47;1.35;;;0.75;;
76121;SDS011;64853;53.200;6.080;2023-05-10T13:09:39;1.15;;;0.90;;
76121;SDS011;64853;53.200;6.080;2023-05-10T13:14:30;1.42;;;1.05;;
76121;SDS011;64853;53.200;6.080;2023-05-10T13:19:22;1.23;;;1.13;;
76121;SDS011;64853;53.200;6.080;2023-05-10T13:24:15;1.10;;;1.00;;
76121;SDS011;64853;53.200;6.080;2023-05-10T13:29:07;2.33;;;0.90;;
76121;SDS011;64853;53.200;6.080;2023-05-10T13:33:58;1.48;;;1.00;;
76121;SDS011;64853;53.200;6.080;2023-05-10T13:38:50;1.05;;;0.90;;
76121;SDS011;64853;53.200;6.080;2023-05-10T13:48:34;0.90;;;0.80;;
76121;SDS011;64853;53.200;6.080;2023-05-10T13:53:27;1.13;;;1.00;;
76121;SDS011;64853;53.200;6.080;2023-05-10T13:58:18;1.70;;;0.90;;
76121;SDS011;64853;53.200;6.080;2023-05-10T14:03:11;1.50;;;0.98;;
76121;SDS011;64853;53.200;6.080;2023-05-10T14:08:02;1.10;;;1.00;;
76121;SDS011;64853;53.200;6.080;2023-05-10T14:12:54;1.90;;;1.63;;
76121;SDS011;64853;53.200;6.080;2023-05-10T14:17:46;1.25;;;0.90;;
76121;SDS011;64853;53.200;6.080;2023-05-10T14:27:30;0.57;;;0.52;;
76121;SDS011;64853;53.200;6.080;2023-05-10T14:32:22;1.67;;;1.13;;
76121;SDS011;64853;53.200;6.080;2023-05-10T14:37:14;0.77;;;0.77;;
76121;SDS011;64853;53.200;6.080;2023-05-10T14:42:06;1.40;;;0.80;;
76121;SDS011;64853;53.200;6.080;2023-05-10T14:46:58;0.95;;;0.80;;
76121;SDS011;64853;53.200;6.080;2023-05-10T14:51:50;1.30;;;0.95;;
76121;SDS011;64853;53.200;6.080;2023-05-10T14:56:41;1.20;;;0.70;;
76121;SDS011;64853;53.200;6.080;2023-05-10T15:01:34;0.95;;;0.70;;
76121;SDS011;64853;53.200;6.080;2023-05-10T15:06:30;1.17;;;0.68;;
76121;SDS011;64853;53.200;6.080;2023-05-10T15:11:22;0.70;;;0.70;;
76121;SDS011;64853;53.200;6.080;2023-05-10T15:16:14;0.93;;;0.82;;
76121;SDS011;64853;53.200;6.080;2023-05-10T15:21:06;0.70;;;0.45;;
76121;SDS011;64853;53.200;6.080;2023-05-10T15:25:58;0.98;;;0.68;;
76121;SDS011;64853;53.200;6.080;2023-05-10T15:35:41;0.95;;;0.70;;
76121;SDS011;64853;53.200;6.080;2023-05-10T15:40:34;0.68;;;0.68;;
76121;SDS011;64853;53.200;6.080;2023-05-10T15:45:25;0.88;;;0.70;;
76121;SDS011;64853;53.200;6.080;2023-05-10T15:50:17;0.68;;;0.60;;
76121;SDS011;64853;53.200;6.080;2023-05-10T16:00:03;2.35;;;1.00;;
76121;SDS011;64853;53.200;6.080;2023-05-10T16:04:55;1.15;;;0.90;;
76121;SDS011;64853;53.200;6.080;2023-05-10T16:09:47;1.38;;;0.77;;
76121;SDS011;64853;53.200;6.080;2023-05-10T16:14:39;1.10;;;0.85;;
76121;SDS011;64853;53.200;6.080;2023-05-10T16:19:32;1.30;;;1.15;;
76121;SDS011;64853;53.200;6.080;2023-05-10T16:24:23;0.93;;;0.82;;
76121;SDS011;64853;53.200;6.080;2023-05-10T16:29:15;1.23;;;1.13;;
76121;SDS011;64853;53.200;6.080;2023-05-10T16:34:06;0.85;;;0.60;;
76121;SDS011;64853;53.200;6.080;2023-05-10T16:38:59;0.57;;;0.57;;
76121;SDS011;64853;53.200;6.080;2023-05-10T16:43:51;1.20;;;0.82;;
76121;SDS011;64853;53.200;6.080;2023-05-10T16:53:33;1.13;;;0.88;;
76121;SDS011;64853;53.200;6.080;2023-05-10T16:58:27;0.95;;;0.73;;
76121;SDS011;64853;53.200;6.080;2023-05-10T17:03:18;1.17;;;0.80;;
76121;SDS011;64853;53.200;6.080;2023-05-10T17:08:09;1.65;;;0.80;;
76121;SDS011;64853;53.200;6.080;2023-05-10T17:13:01;0.70;;;0.70;;
76121;SDS011;64853;53.200;6.080;2023-05-10T17:22:45;0.75;;;0.75;;
76121;SDS011;64853;53.200;6.080;2023-05-10T17:27:37;1.17;;;0.60;;
76121;SDS011;64853;53.200;6.080;2023-05-10T17:32:28;0.80;;;0.57;;
76121;SDS011;64853;53.200;6.080;2023-05-10T17:37:21;1.05;;;0.70;;
76121;SDS011;64853;53.200;6.080;2023-05-10T17:42:13;1.23;;;0.80;;
76121;SDS011;64853;53.200;6.080;2023-05-10T17:47:06;0.80;;;0.60;;
76121;SDS011;64853;53.200;6.080;2023-05-10T17:56:50;0.82;;;0.65;;
76121;SDS011;64853;53.200;6.080;2023-05-10T18:01:42;0.70;;;0.70;;
76121;SDS011;64853;53.200;6.080;2023-05-10T18:11:25;1.10;;;0.80;;
76121;SDS011;64853;53.200;6.080;2023-05-10T18:16:18;1.00;;;0.77;;
76121;SDS011;64853;53.200;6.080;2023-05-10T18:21:10;1.60;;;1.00;;
76121;SDS011;64853;53.200;6.080;2023-05-10T18:26:01;1.00;;;0.80;;
76121;SDS011;64853;53.200;6.080;2023-05-10T18:35:45;1.23;;;0.93;;
76121;SDS011;64853;53.200;6.080;2023-05-10T18:40:37;0.90;;;0.75;;
76121;SDS011;64853;53.200;6.080;2023-05-10T18:45:29;0.77;;;0.68;;
76121;SDS011;64853;53.200;6.080;2023-05-10T18:55:13;0.93;;;0.80;;
76121;SDS011;64853;53.200;6.080;2023-05-10T19:00:05;1.00;;;0.90;;
76121;SDS011;64853;53.200;6.080;2023-05-10T19:04:59;0.80;;;0.70;;
76121;SDS011;64853;53.200;6.080;2023-05-10T19:09:51;0.90;;;0.75;;
76121;SDS011;64853;53.200;6.080;2023-05-10T19:14:43;1.08;;;0.70;;
76121;SDS011;64853;53.200;6.080;2023-05-10T19:19:35;1.63;;;0.88;;
76121;SDS011;64853;53.200;6.080;2023-05-10T19:24:26;0.60;;;0.55;;
76121;SDS011;64853;53.200;6.080;2023-05-10T19:29:18;0.65;;;0.65;;
76121;SDS011;64853;53.200;6.080;2023-05-10T19:34:11;0.75;;;0.75;;
76121;SDS011;64853;53.200;6.080;2023-05-10T19:39:02;1.02;;;0.80;;
76121;SDS011;64853;53.200;6.080;2023-05-10T19:43:54;1.02;;;0.70;;
76121;SDS011;64853;53.200;6.080;2023-05-10T19:48:46;0.98;;;0.73;;
76121;SDS011;64853;53.200;6.080;2023-05-10T19:53:39;1.00;;;0.70;;
76121;SDS011;64853;53.200;6.080;2023-05-10T19:58:33;0.90;;;0.70;;
76121;SDS011;64853;53.200;6.080;2023-05-10T20:03:25;0.77;;;0.63;;
76121;SDS011;64853;53.200;6.080;2023-05-10T20:08:17;1.05;;;0.65;;
76121;SDS011;64853;53.200;6.080;2023-05-10T20:18:01;0.52;;;0.47;;
76121;SDS011;64853;53.200;6.080;2023-05-10T20:22:53;0.57;;;0.47;;
76121;SDS011;64853;53.200;6.080;2023-05-10T20:27:45;0.95;;;0.55;;
76121;SDS011;64853;53.200;6.080;2023-05-10T20:32:40;0.40;;;0.40;;
76121;SDS011;64853;53.200;6.080;2023-05-10T20:37:32;0.50;;;0.50;;
76121;SDS011;64853;53.200;6.080;2023-05-10T20:47:15;0.68;;;0.50;;
76121;SDS011;64853;53.200;6.080;2023-05-10T20:52:08;0.75;;;0.65;;
76121;SDS011;64853;53.200;6.080;2023-05-10T20:57:00;0.52;;;0.52;;
76121;SDS011;64853;53.200;6.080;2023-05-10T21:01:52;0.30;;;0.30;;
76121;SDS011;64853;53.200;6.080;2023-05-10T21:06:44;0.50;;;0.40;;
76121;SDS011;64853;53.200;6.080;2023-05-10T21:11:37;0.63;;;0.60;;
76121;SDS011;64853;53.200;6.080;2023-05-10T21:16:28;0.98;;;0.50;;
76121;SDS011;64853;53.200;6.080;2023-05-10T21:26:11;0.75;;;0.50;;
76121;SDS011;64853;53.200;6.080;2023-05-10T21:31:04;1.23;;;0.70;;
76121;SDS011;64853;53.200;6.080;2023-05-10T21:35:55;0.30;;;0.30;;
76121;SDS011;64853;53.200;6.080;2023-05-10T21:40:47;0.43;;;0.40;;
76121;SDS011;64853;53.200;6.080;2023-05-10T21:50:31;0.63;;;0.52;;
76121;SDS011;64853;53.200;6.080;2023-05-10T21:55:22;0.60;;;0.32;;
76121;SDS011;64853;53.200;6.080;2023-05-10T22:00:14;0.30;;;0.30;;
76121;SDS011;64853;53.200;6.080;2023-05-10T22:05:08;0.30;;;0.30;;
76121;SDS011;64853;53.200;6.080;2023-05-10T22:10:01;0.40;;;0.30;;
76121;SDS011;64853;53.200;6.080;2023-05-10T22:14:52;0.30;;;0.30;;
76121;SDS011;64853;53.200;6.080;2023-05-10T22:19:44;0.52;;;0.50;;
76121;SDS011;64853;53.200;6.080;2023-05-10T22:24:35;0.50;;;0.43;;
76121;SDS011;64853;53.200;6.080;2023-05-10T22:34:19;0.40;;;0.30;;
76121;SDS011;64853;53.200;6.080;2023-05-10T22:39:11;0.20;;;0.20;;
76121;SDS011;64853;53.200;6.080;2023-05-10T22:44:02;0.60;;;0.47;;
76121;SDS011;64853;53.200;6.080;2023-05-10T22:48:55;0.55;;;0.22;;
76121;SDS011;64853;53.200;6.080;2023-05-10T22:53:47;0.20;;;0.20;;
76121;SDS011;64853;53.200;6.080;2023-05-10T22:58:38;0.50;;;0.40;;
76121;SDS011;64853;53.200;6.080;2023-05-10T23:03:29;0.95;;;0.40;;
76121;SDS011;64853;53.200;6.080;2023-05-10T23:08:22;0.30;;;0.30;;
76121;SDS011;64853;53.200;6.080;2023-05-10T23:13:14;0.28;;;0.22;;
76121;SDS011;64853;53.200;6.080;2023-05-10T23:18:05;0.40;;;0.32;;
76121;SDS011;64853;53.200;6.080;2023-05-10T23:22:58;0.40;;;0.40;;
76121;SDS011;64853;53.200;6.080;2023-05-10T23:27:51;0.25;;;0.22;;
76121;SDS011;64853;53.200;6.080;2023-05-10T23:32:42;0.40;;;0.38;;
76121;SDS011;64853;53.200;6.080;2023-05-10T23:37:34;0.25;;;0.20;;
76121;SDS011;64853;53.200;6.080;2023-05-10T23:42:26;0.40;;;0.40;;
76121;SDS011;64853;53.200;6.080;2023-05-10T23:47:19;0.77;;;0.35;;
76121;SDS011;64853;53.200;6.080;2023-05-10T23:52:10;0.40;;;0.40;;
76121;SDS011;64853;53.200;6.080;2023-05-10T23:57:02;0.43;;;0.40;;
